Terminal Aerodrome Forecast
Issued by NWS

Home | Current Version | Previous Version | Graphics & Text | Print | Product List | Glossary On
Versions: 1 2 3 4 5 6 7 8 9 10 11 12 13 14 15 16 17 18 19 20 21 22 23 24 25 26 27
413
FTUS43 KLOT 250233 AAA
TAFORD
TAF AMD
KORD 250233Z 2503/2606 29010KT P6SM -DZ BKN008 OVC012
     FM250500 29012G18KT 4SM BR VCSH OVC008
      TEMPO 2505/2507 2SM -RASN BR
     FM250700 30014G21KT 2SM -SN OVC015
     FM251200 30016G24KT 4SM -SN BR OVC015 PROB30 2512/2515 2SM -SN
      BR OVC007
     FM251600 29015G23KT P6SM OVC020
     FM252300 29012G18KT P6SM BKN035
     FM260200 29009KT P6SM SCT100=

USA.gov is the U.S. government's official web portal to all federal, state and local government web resources and services.